Terminal Aerodrome Forecast
Issued by NWS Pendleton, OR

Home | Current Version | Previous Version | Text Only | Print | Product List | Glossary On
Versions: 1 2 3 4 5 6 7 8 9 10 11 12 13 14
000
FTUS46 KPDT 180520
TAFPDT
TAF
KPDT 180520Z 1806/1906 20009KT P6SM SCT070 BKN150
     FM181700 24013KT P6SM OVC100
      TEMPO 1818/1822 -SHRA
     FM190300 17008KT P6SM BKN150=

USA.gov is the U.S. government's official web portal to all federal, state and local government web resources and services.